sensor_id;sensor_type;location;lat;lon;timestamp;P1;durP1;ratioP1;P2;durP2;ratioP2
8102;SDS011;4094;49.948;11.574;2022-11-15T00:00:59;16.97;;;15.47;;
8102;SDS011;4094;49.948;11.574;2022-11-15T00:03:50;16.80;;;15.30;;
8102;SDS011;4094;49.948;11.574;2022-11-15T00:06:39;18.17;;;16.60;;
8102;SDS011;4094;49.948;11.574;2022-11-15T00:09:27;17.00;;;15.67;;
8102;SDS011;4094;49.948;11.574;2022-11-15T00:12:15;17.87;;;16.37;;
8102;SDS011;4094;49.948;11.574;2022-11-15T00:15:02;16.57;;;15.20;;
8102;SDS011;4094;49.948;11.574;2022-11-15T00:17:52;16.70;;;15.37;;
8102;SDS011;4094;49.948;11.574;2022-11-15T00:20:39;16.77;;;15.23;;
8102;SDS011;4094;49.948;11.574;2022-11-15T00:23:30;17.23;;;15.83;;
8102;SDS011;4094;49.948;11.574;2022-11-15T00:26:19;16.90;;;15.53;;
8102;SDS011;4094;49.948;11.574;2022-11-15T00:29:09;17.77;;;16.23;;
8102;SDS011;4094;49.948;11.574;2022-11-15T00:31:58;17.70;;;16.20;;
8102;SDS011;4094;49.948;11.574;2022-11-15T00:34:46;16.77;;;15.27;;
8102;SDS011;4094;49.948;11.574;2022-11-15T00:37:34;17.10;;;15.50;;
8102;SDS011;4094;49.948;11.574;2022-11-15T00:40:23;16.43;;;15.07;;
8102;SDS011;4094;49.948;11.574;2022-11-15T00:43:11;16.10;;;14.83;;
8102;SDS011;4094;49.948;11.574;2022-11-15T00:45:58;16.47;;;15.13;;
8102;SDS011;4094;49.948;11.574;2022-11-15T00:48:48;17.03;;;15.63;;
8102;SDS011;4094;49.948;11.574;2022-11-15T00:51:36;16.10;;;14.70;;
8102;SDS011;4094;49.948;11.574;2022-11-15T00:54:23;16.03;;;14.73;;
8102;SDS011;4094;49.948;11.574;2022-11-15T00:57:12;15.10;;;13.83;;
8102;SDS011;4094;49.948;11.574;2022-11-15T01:00:00;16.90;;;15.50;;
8102;SDS011;4094;49.948;11.574;2022-11-15T01:02:48;16.33;;;15.03;;
8102;SDS011;4094;49.948;11.574;2022-11-15T01:05:36;16.83;;;15.37;;
8102;SDS011;4094;49.948;11.574;2022-11-15T01:08:25;16.33;;;15.03;;
8102;SDS011;4094;49.948;11.574;2022-11-15T01:11:13;16.10;;;14.80;;
8102;SDS011;4094;49.948;11.574;2022-11-15T01:14:01;16.93;;;15.47;;
8102;SDS011;4094;49.948;11.574;2022-11-15T01:16:49;16.50;;;15.20;;
8102;SDS011;4094;49.948;11.574;2022-11-15T01:19:37;17.13;;;15.70;;
8102;SDS011;4094;49.948;11.574;2022-11-15T01:22:25;17.03;;;15.63;;
8102;SDS011;4094;49.948;11.574;2022-11-15T01:25:13;17.10;;;15.70;;
8102;SDS011;4094;49.948;11.574;2022-11-15T01:28:01;17.20;;;15.70;;
8102;SDS011;4094;49.948;11.574;2022-11-15T01:30:50;17.20;;;15.80;;
8102;SDS011;4094;49.948;11.574;2022-11-15T01:33:38;17.53;;;16.03;;
8102;SDS011;4094;49.948;11.574;2022-11-15T01:36:25;16.70;;;15.30;;
8102;SDS011;4094;49.948;11.574;2022-11-15T01:39:13;17.13;;;15.73;;
8102;SDS011;4094;49.948;11.574;2022-11-15T01:42:01;17.80;;;16.20;;
8102;SDS011;4094;49.948;11.574;2022-11-15T01:44:49;16.90;;;15.47;;
8102;SDS011;4094;49.948;11.574;2022-11-15T01:47:39;17.17;;;15.77;;
8102;SDS011;4094;49.948;11.574;2022-11-15T01:50:30;16.70;;;15.30;;
8102;SDS011;4094;49.948;11.574;2022-11-15T01:53:19;16.77;;;15.47;;
8102;SDS011;4094;49.948;11.574;2022-11-15T01:56:11;17.77;;;16.27;;
8102;SDS011;4094;49.948;11.574;2022-11-15T01:59:05;17.47;;;16.07;;
8102;SDS011;4094;49.948;11.574;2022-11-15T02:01:56;17.10;;;15.70;;
8102;SDS011;4094;49.948;11.574;2022-11-15T02:04:46;16.73;;;15.33;;
8102;SDS011;4094;49.948;11.574;2022-11-15T02:07:34;17.83;;;16.33;;
8102;SDS011;4094;49.948;11.574;2022-11-15T02:10:23;17.77;;;16.17;;
8102;SDS011;4094;49.948;11.574;2022-11-15T02:13:11;16.67;;;15.33;;
8102;SDS011;4094;49.948;11.574;2022-11-15T02:16:02;17.10;;;15.70;;
8102;SDS011;4094;49.948;11.574;2022-11-15T02:18:56;17.17;;;15.77;;
8102;SDS011;4094;49.948;11.574;2022-11-15T02:21:52;17.97;;;16.30;;
8102;SDS011;4094;49.948;11.574;2022-11-15T02:24:57;17.70;;;16.17;;
8102;SDS011;4094;49.948;11.574;2022-11-15T02:31:18;17.50;;;16.00;;
8102;SDS011;4094;49.948;11.574;2022-11-15T02:34:16;17.30;;;15.90;;
8102;SDS011;4094;49.948;11.574;2022-11-15T02:37:15;16.83;;;15.43;;
8102;SDS011;4094;49.948;11.574;2022-11-15T02:40:06;17.07;;;15.57;;
8102;SDS011;4094;49.948;11.574;2022-11-15T02:43:04;17.20;;;15.77;;
8102;SDS011;4094;49.948;11.574;2022-11-15T02:46:15;17.43;;;15.93;;
8102;SDS011;4094;49.948;11.574;2022-11-15T02:49:31;17.70;;;16.00;;
8102;SDS011;4094;49.948;11.574;2022-11-15T02:52:21;18.10;;;16.50;;
8102;SDS011;4094;49.948;11.574;2022-11-15T02:58:22;17.60;;;16.10;;
8102;SDS011;4094;49.948;11.574;2022-11-15T03:01:29;18.90;;;17.33;;
8102;SDS011;4094;49.948;11.574;2022-11-15T03:04:29;18.13;;;16.57;;
8102;SDS011;4094;49.948;11.574;2022-11-15T03:07:26;17.53;;;16.13;;
8102;SDS011;4094;49.948;11.574;2022-11-15T03:10:17;17.47;;;15.93;;
8102;SDS011;4094;49.948;11.574;2022-11-15T03:13:15;19.00;;;17.20;;
8102;SDS011;4094;49.948;11.574;2022-11-15T03:16:11;17.87;;;16.37;;
8102;SDS011;4094;49.948;11.574;2022-11-15T03:19:12;18.37;;;16.77;;
8102;SDS011;4094;49.948;11.574;2022-11-15T03:22:04;17.70;;;16.30;;
8102;SDS011;4094;49.948;11.574;2022-11-15T03:24:56;17.80;;;16.20;;
8102;SDS011;4094;49.948;11.574;2022-11-15T03:27:46;16.50;;;15.17;;
8102;SDS011;4094;49.948;11.574;2022-11-15T03:30:38;18.13;;;16.63;;
8102;SDS011;4094;49.948;11.574;2022-11-15T03:33:29;17.70;;;16.30;;
8102;SDS011;4094;49.948;11.574;2022-11-15T03:36:19;17.43;;;16.03;;
8102;SDS011;4094;49.948;11.574;2022-11-15T03:39:10;17.67;;;16.17;;
8102;SDS011;4094;49.948;11.574;2022-11-15T03:42:08;17.50;;;16.00;;
8102;SDS011;4094;49.948;11.574;2022-11-15T03:45:07;18.20;;;16.70;;
8102;SDS011;4094;49.948;11.574;2022-11-15T03:48:02;17.73;;;16.23;;
8102;SDS011;4094;49.948;11.574;2022-11-15T03:50:58;17.50;;;16.00;;
8102;SDS011;4094;49.948;11.574;2022-11-15T03:53:47;17.60;;;16.00;;
8102;SDS011;4094;49.948;11.574;2022-11-15T03:56:36;17.90;;;16.40;;
8102;SDS011;4094;49.948;11.574;2022-11-15T03:59:24;18.13;;;16.63;;
8102;SDS011;4094;49.948;11.574;2022-11-15T04:02:12;17.87;;;16.37;;
8102;SDS011;4094;49.948;11.574;2022-11-15T04:05:02;20.00;;;18.07;;
8102;SDS011;4094;49.948;11.574;2022-11-15T04:07:50;18.33;;;16.63;;
8102;SDS011;4094;49.948;11.574;2022-11-15T04:10:40;18.53;;;16.83;;
8102;SDS011;4094;49.948;11.574;2022-11-15T04:13:27;18.10;;;16.60;;
8102;SDS011;4094;49.948;11.574;2022-11-15T04:16:15;19.63;;;17.93;;
8102;SDS011;4094;49.948;11.574;2022-11-15T04:19:03;18.40;;;16.90;;
8102;SDS011;4094;49.948;11.574;2022-11-15T04:22:10;19.17;;;17.57;;
8102;SDS011;4094;49.948;11.574;2022-11-15T04:25:15;19.10;;;17.50;;
8102;SDS011;4094;49.948;11.574;2022-11-15T04:28:09;19.13;;;17.53;;
8102;SDS011;4094;49.948;11.574;2022-11-15T04:30:57;18.77;;;16.97;;
8102;SDS011;4094;49.948;11.574;2022-11-15T04:33:46;17.53;;;16.13;;
8102;SDS011;4094;49.948;11.574;2022-11-15T04:36:33;19.47;;;17.73;;
8102;SDS011;4094;49.948;11.574;2022-11-15T04:39:39;18.53;;;17.00;;
8102;SDS011;4094;49.948;11.574;2022-11-15T04:42:28;19.27;;;17.57;;
8102;SDS011;4094;49.948;11.574;2022-11-15T04:45:17;18.73;;;16.93;;
8102;SDS011;4094;49.948;11.574;2022-11-15T04:48:05;18.37;;;16.87;;
8102;SDS011;4094;49.948;11.574;2022-11-15T04:50:53;19.47;;;17.50;;
8102;SDS011;4094;49.948;11.574;2022-11-15T04:53:40;17.93;;;16.43;;
8102;SDS011;4094;49.948;11.574;2022-11-15T04:56:29;17.07;;;15.67;;
8102;SDS011;4094;49.948;11.574;2022-11-15T04:59:16;18.53;;;16.87;;
8102;SDS011;4094;49.948;11.574;2022-11-15T05:02:05;18.03;;;16.53;;
8102;SDS011;4094;49.948;11.574;2022-11-15T05:04:53;18.03;;;16.43;;
8102;SDS011;4094;49.948;11.574;2022-11-15T05:07:40;17.53;;;16.13;;
8102;SDS011;4094;49.948;11.574;2022-11-15T05:10:28;17.93;;;16.43;;
8102;SDS011;4094;49.948;11.574;2022-11-15T05:13:16;18.47;;;16.97;;
8102;SDS011;4094;49.948;11.574;2022-11-15T05:16:04;18.67;;;17.10;;
8102;SDS011;4094;49.948;11.574;2022-11-15T05:18:53;18.00;;;16.50;;
8102;SDS011;4094;49.948;11.574;2022-11-15T05:21:41;18.20;;;16.70;;
8102;SDS011;4094;49.948;11.574;2022-11-15T05:24:28;17.67;;;16.27;;
8102;SDS011;4094;49.948;11.574;2022-11-15T05:27:16;17.97;;;16.57;;
8102;SDS011;4094;49.948;11.574;2022-11-15T05:30:04;19.10;;;17.50;;
8102;SDS011;4094;49.948;11.574;2022-11-15T05:32:53;18.30;;;16.60;;
8102;SDS011;4094;49.948;11.574;2022-11-15T05:35:45;19.43;;;17.70;;
8102;SDS011;4094;49.948;11.574;2022-11-15T05:38:37;19.17;;;17.57;;
8102;SDS011;4094;49.948;11.574;2022-11-15T05:41:27;19.40;;;17.63;;
8102;SDS011;4094;49.948;11.574;2022-11-15T05:44:21;19.33;;;17.63;;
8102;SDS011;4094;49.948;11.574;2022-11-15T05:47:13;19.03;;;17.33;;
8102;SDS011;4094;49.948;11.574;2022-11-15T05:50:07;18.23;;;16.63;;
8102;SDS011;4094;49.948;11.574;2022-11-15T05:53:00;19.70;;;17.97;;
8102;SDS011;4094;49.948;11.574;2022-11-15T05:55:58;19.53;;;17.80;;
8102;SDS011;4094;49.948;11.574;2022-11-15T05:58:49;19.37;;;17.60;;
8102;SDS011;4094;49.948;11.574;2022-11-15T06:01:45;19.87;;;18.10;;
8102;SDS011;4094;49.948;11.574;2022-11-15T06:04:34;19.30;;;17.60;;
8102;SDS011;4094;49.948;11.574;2022-11-15T06:07:21;18.50;;;16.97;;
8102;SDS011;4094;49.948;11.574;2022-11-15T06:10:10;18.80;;;17.20;;
8102;SDS011;4094;49.948;11.574;2022-11-15T06:12:58;18.20;;;16.60;;
8102;SDS011;4094;49.948;11.574;2022-11-15T06:15:47;18.57;;;16.87;;
8102;SDS011;4094;49.948;11.574;2022-11-15T06:18:35;17.90;;;16.37;;
8102;SDS011;4094;49.948;11.574;2022-11-15T06:21:23;16.80;;;15.50;;
8102;SDS011;4094;49.948;11.574;2022-11-15T06:24:15;17.67;;;16.17;;
8102;SDS011;4094;49.948;11.574;2022-11-15T06:27:04;17.60;;;16.00;;
8102;SDS011;4094;49.948;11.574;2022-11-15T06:29:52;18.57;;;16.87;;
8102;SDS011;4094;49.948;11.574;2022-11-15T06:32:41;18.67;;;17.07;;
8102;SDS011;4094;49.948;11.574;2022-11-15T06:35:30;17.17;;;15.67;;
8102;SDS011;4094;49.948;11.574;2022-11-15T06:38:20;18.70;;;17.00;;
8102;SDS011;4094;49.948;11.574;2022-11-15T06:41:08;17.17;;;15.73;;
8102;SDS011;4094;49.948;11.574;2022-11-15T06:44:00;17.17;;;15.77;;
8102;SDS011;4094;49.948;11.574;2022-11-15T06:46:47;18.20;;;16.60;;
8102;SDS011;4094;49.948;11.574;2022-11-15T06:49:35;18.57;;;16.77;;
8102;SDS011;4094;49.948;11.574;2022-11-15T06:52:24;18.13;;;16.63;;
8102;SDS011;4094;49.948;11.574;2022-11-15T06:55:11;17.97;;;16.47;;
8102;SDS011;4094;49.948;11.574;2022-11-15T06:58:01;18.07;;;16.57;;
8102;SDS011;4094;49.948;11.574;2022-11-15T07:00:51;18.87;;;17.17;;
8102;SDS011;4094;49.948;11.574;2022-11-15T07:03:39;18.00;;;16.40;;
8102;SDS011;4094;49.948;11.574;2022-11-15T07:06:28;17.93;;;16.43;;
8102;SDS011;4094;49.948;11.574;2022-11-15T07:09:15;17.47;;;15.87;;
8102;SDS011;4094;49.948;11.574;2022-11-15T07:15:21;16.67;;;15.27;;
8102;SDS011;4094;49.948;11.574;2022-11-15T07:18:19;17.00;;;15.57;;
8102;SDS011;4094;49.948;11.574;2022-11-15T07:21:08;17.43;;;15.93;;
8102;SDS011;4094;49.948;11.574;2022-11-15T07:24:00;16.60;;;15.20;;
8102;SDS011;4094;49.948;11.574;2022-11-15T07:26:49;17.50;;;15.90;;
8102;SDS011;4094;49.948;11.574;2022-11-15T07:29:42;17.47;;;15.73;;
8102;SDS011;4094;49.948;11.574;2022-11-15T07:32:30;17.53;;;16.10;;
8102;SDS011;4094;49.948;11.574;2022-11-15T07:35:19;16.70;;;15.20;;
8102;SDS011;4094;49.948;11.574;2022-11-15T07:38:07;16.37;;;14.80;;
8102;SDS011;4094;49.948;11.574;2022-11-15T07:40:56;16.73;;;15.23;;
8102;SDS011;4094;49.948;11.574;2022-11-15T07:43:45;16.80;;;15.40;;
8102;SDS011;4094;49.948;11.574;2022-11-15T07:46:33;17.10;;;15.70;;
8102;SDS011;4094;49.948;11.574;2022-11-15T07:49:20;16.20;;;14.90;;
8102;SDS011;4094;49.948;11.574;2022-11-15T07:52:10;17.00;;;15.50;;
8102;SDS011;4094;49.948;11.574;2022-11-15T07:54:58;16.90;;;15.57;;
8102;SDS011;4094;49.948;11.574;2022-11-15T07:57:45;16.43;;;15.13;;
8102;SDS011;4094;49.948;11.574;2022-11-15T08:00:33;16.37;;;15.07;;
8102;SDS011;4094;49.948;11.574;2022-11-15T08:03:21;16.13;;;14.93;;
8102;SDS011;4094;49.948;11.574;2022-11-15T08:06:09;16.73;;;15.23;;
8102;SDS011;4094;49.948;11.574;2022-11-15T08:08:58;16.83;;;15.33;;
8102;SDS011;4094;49.948;11.574;2022-11-15T08:11:46;15.93;;;14.63;;
8102;SDS011;4094;49.948;11.574;2022-11-15T08:14:34;16.60;;;15.20;;
8102;SDS011;4094;49.948;11.574;2022-11-15T08:17:22;15.77;;;14.37;;
8102;SDS011;4094;49.948;11.574;2022-11-15T08:20:10;14.80;;;13.70;;
8102;SDS011;4094;49.948;11.574;2022-11-15T08:23:00;15.83;;;14.53;;
8102;SDS011;4094;49.948;11.574;2022-11-15T08:25:58;16.27;;;14.87;;
8102;SDS011;4094;49.948;11.574;2022-11-15T08:28:46;15.27;;;13.90;;
8102;SDS011;4094;49.948;11.574;2022-11-15T08:31:34;15.07;;;13.77;;
8102;SDS011;4094;49.948;11.574;2022-11-15T08:34:23;14.47;;;13.27;;
8102;SDS011;4094;49.948;11.574;2022-11-15T08:37:11;14.73;;;13.37;;
8102;SDS011;4094;49.948;11.574;2022-11-15T08:40:00;14.80;;;13.50;;
8102;SDS011;4094;49.948;11.574;2022-11-15T08:42:53;13.97;;;12.77;;
8102;SDS011;4094;49.948;11.574;2022-11-15T08:45:40;13.90;;;12.80;;
8102;SDS011;4094;49.948;11.574;2022-11-15T08:48:30;14.40;;;13.20;;
8102;SDS011;4094;49.948;11.574;2022-11-15T08:51:19;13.57;;;12.37;;
8102;SDS011;4094;49.948;11.574;2022-11-15T08:54:07;12.90;;;11.87;;
8102;SDS011;4094;49.948;11.574;2022-11-15T08:56:54;12.53;;;11.53;;
8102;SDS011;4094;49.948;11.574;2022-11-15T08:59:44;12.53;;;11.53;;
8102;SDS011;4094;49.948;11.574;2022-11-15T09:02:32;11.87;;;10.87;;
8102;SDS011;4094;49.948;11.574;2022-11-15T09:05:21;11.23;;;10.33;;
8102;SDS011;4094;49.948;11.574;2022-11-15T09:08:10;11.13;;;10.30;;
8102;SDS011;4094;49.948;11.574;2022-11-15T09:11:19;11.93;;;10.83;;
8102;SDS011;4094;49.948;11.574;2022-11-15T09:14:09;11.10;;;10.20;;
8102;SDS011;4094;49.948;11.574;2022-11-15T09:17:01;11.40;;;10.50;;
8102;SDS011;4094;49.948;11.574;2022-11-15T09:19:50;10.97;;;9.97;;
8102;SDS011;4094;49.948;11.574;2022-11-15T09:22:38;10.83;;;9.87;;
8102;SDS011;4094;49.948;11.574;2022-11-15T09:25:26;10.97;;;10.17;;
8102;SDS011;4094;49.948;11.574;2022-11-15T09:28:15;12.30;;;11.00;;
8102;SDS011;4094;49.948;11.574;2022-11-15T09:31:04;10.73;;;9.83;;
8102;SDS011;4094;49.948;11.574;2022-11-15T09:33:54;10.83;;;9.73;;
8102;SDS011;4094;49.948;11.574;2022-11-15T09:36:41;10.00;;;8.87;;
8102;SDS011;4094;49.948;11.574;2022-11-15T09:39:29;10.20;;;9.37;;
8102;SDS011;4094;49.948;11.574;2022-11-15T09:42:21;10.43;;;9.53;;
8102;SDS011;4094;49.948;11.574;2022-11-15T09:45:18;10.20;;;9.20;;
8102;SDS011;4094;49.948;11.574;2022-11-15T09:48:18;9.87;;;8.97;;
8102;SDS011;4094;49.948;11.574;2022-11-15T09:51:27;8.77;;;8.07;;
8102;SDS011;4094;49.948;11.574;2022-11-15T09:54:04;9.00;;;8.30;;
8102;SDS011;4094;49.948;11.574;2022-11-15T09:57:02;9.07;;;8.27;;
8102;SDS011;4094;49.948;11.574;2022-11-15T09:59:54;8.10;;;7.33;;
8102;SDS011;4094;49.948;11.574;2022-11-15T10:02:58;7.93;;;7.27;;
8102;SDS011;4094;49.948;11.574;2022-11-15T10:05:37;7.77;;;7.17;;
8102;SDS011;4094;49.948;11.574;2022-11-15T10:08:13;8.47;;;7.67;;
8102;SDS011;4094;49.948;11.574;2022-11-15T10:11:05;7.97;;;7.37;;
8102;SDS011;4094;49.948;11.574;2022-11-15T10:13:56;8.17;;;7.03;;
8102;SDS011;4094;49.948;11.574;2022-11-15T10:16:45;7.67;;;6.97;;
8102;SDS011;4094;49.948;11.574;2022-11-15T10:19:28;7.50;;;6.90;;
8102;SDS011;4094;49.948;11.574;2022-11-15T10:22:05;7.57;;;6.80;;
8102;SDS011;4094;49.948;11.574;2022-11-15T10:24:47;7.17;;;6.57;;
8102;SDS011;4094;49.948;11.574;2022-11-15T10:27:19;6.97;;;6.43;;
8102;SDS011;4094;49.948;11.574;2022-11-15T10:29:49;7.30;;;6.70;;
8102;SDS011;4094;49.948;11.574;2022-11-15T10:32:19;8.83;;;6.67;;
8102;SDS011;4094;49.948;11.574;2022-11-15T10:34:49;7.13;;;6.63;;
8102;SDS011;4094;49.948;11.574;2022-11-15T10:37:27;8.00;;;7.20;;
8102;SDS011;4094;49.948;11.574;2022-11-15T10:40:06;7.47;;;6.77;;
8102;SDS011;4094;49.948;11.574;2022-11-15T10:42:44;7.13;;;6.53;;
8102;SDS011;4094;49.948;11.574;2022-11-15T10:45:23;6.50;;;5.90;;
8102;SDS011;4094;49.948;11.574;2022-11-15T10:48:14;6.77;;;6.03;;
8102;SDS011;4094;49.948;11.574;2022-11-15T10:50:52;6.67;;;6.07;;
8102;SDS011;4094;49.948;11.574;2022-11-15T10:53:24;6.57;;;5.97;;
8102;SDS011;4094;49.948;11.574;2022-11-15T10:56:01;6.93;;;6.23;;
8102;SDS011;4094;49.948;11.574;2022-11-15T10:58:35;5.90;;;5.40;;
8102;SDS011;4094;49.948;11.574;2022-11-15T11:01:14;6.23;;;5.70;;
8102;SDS011;4094;49.948;11.574;2022-11-15T11:03:57;5.77;;;5.27;;
8102;SDS011;4094;49.948;11.574;2022-11-15T11:06:32;6.93;;;5.30;;
8102;SDS011;4094;49.948;11.574;2022-11-15T11:09:23;5.73;;;5.23;;
8102;SDS011;4094;49.948;11.574;2022-11-15T11:11:59;5.53;;;5.03;;
8102;SDS011;4094;49.948;11.574;2022-11-15T11:14:29;6.53;;;5.93;;
8102;SDS011;4094;49.948;11.574;2022-11-15T11:17:02;5.37;;;4.97;;
8102;SDS011;4094;49.948;11.574;2022-11-15T11:22:30;5.13;;;4.63;;
8102;SDS011;4094;49.948;11.574;2022-11-15T11:25:14;5.57;;;5.07;;
8102;SDS011;4094;49.948;11.574;2022-11-15T11:27:59;5.23;;;4.77;;
8102;SDS011;4094;49.948;11.574;2022-11-15T11:31:03;6.10;;;4.83;;
8102;SDS011;4094;49.948;11.574;2022-11-15T11:33:41;5.60;;;5.10;;
8102;SDS011;4094;49.948;11.574;2022-11-15T11:36:19;5.20;;;4.80;;
8102;SDS011;4094;49.948;11.574;2022-11-15T11:38:59;5.00;;;4.50;;
8102;SDS011;4094;49.948;11.574;2022-11-15T11:41:49;4.93;;;4.53;;
8102;SDS011;4094;49.948;11.574;2022-11-15T11:44:40;4.90;;;4.50;;
8102;SDS011;4094;49.948;11.574;2022-11-15T11:47:18;4.77;;;4.30;;
8102;SDS011;4094;49.948;11.574;2022-11-15T11:49:51;5.30;;;4.50;;
8102;SDS011;4094;49.948;11.574;2022-11-15T11:52:24;5.00;;;4.50;;
8102;SDS011;4094;49.948;11.574;2022-11-15T11:54:59;4.97;;;4.47;;
8102;SDS011;4094;49.948;11.574;2022-11-15T11:57:38;5.23;;;4.73;;
8102;SDS011;4094;49.948;11.574;2022-11-15T12:00:16;6.13;;;4.60;;
8102;SDS011;4094;49.948;11.574;2022-11-15T12:02:50;5.33;;;4.67;;
8102;SDS011;4094;49.948;11.574;2022-11-15T12:05:32;5.03;;;4.20;;
8102;SDS011;4094;49.948;11.574;2022-11-15T12:08:10;4.83;;;4.40;;
8102;SDS011;4094;49.948;11.574;2022-11-15T12:10:53;5.53;;;5.03;;
8102;SDS011;4094;49.948;11.574;2022-11-15T12:13:29;6.23;;;5.63;;
8102;SDS011;4094;49.948;11.574;2022-11-15T12:16:07;5.67;;;5.17;;
8102;SDS011;4094;49.948;11.574;2022-11-15T12:18:44;6.17;;;5.63;;
8102;SDS011;4094;49.948;11.574;2022-11-15T12:21:19;6.10;;;5.50;;
8102;SDS011;4094;49.948;11.574;2022-11-15T12:23:58;5.80;;;5.20;;
8102;SDS011;4094;49.948;11.574;2022-11-15T12:26:32;6.80;;;5.43;;
8102;SDS011;4094;49.948;11.574;2022-11-15T12:29:09;5.53;;;5.07;;
8102;SDS011;4094;49.948;11.574;2022-11-15T12:31:45;5.90;;;5.40;;
8102;SDS011;4094;49.948;11.574;2022-11-15T12:40:04;5.37;;;4.87;;
8102;SDS011;4094;49.948;11.574;2022-11-15T12:42:58;5.60;;;5.07;;
8102;SDS011;4094;49.948;11.574;2022-11-15T12:45:44;5.97;;;5.37;;
8102;SDS011;4094;49.948;11.574;2022-11-15T13:02:00;6.67;;;6.07;;
8102;SDS011;4094;49.948;11.574;2022-11-15T13:04:32;7.10;;;6.50;;
8102;SDS011;4094;49.948;11.574;2022-11-15T13:07:02;6.53;;;6.03;;
8102;SDS011;4094;49.948;11.574;2022-11-15T13:09:52;6.90;;;6.30;;
8102;SDS011;4094;49.948;11.574;2022-11-15T13:15:37;7.33;;;6.63;;
8102;SDS011;4094;49.948;11.574;2022-11-15T13:18:32;8.30;;;7.60;;
8102;SDS011;4094;49.948;11.574;2022-11-15T13:21:04;7.13;;;6.43;;
8102;SDS011;4094;49.948;11.574;2022-11-15T13:24:10;7.57;;;6.93;;
8102;SDS011;4094;49.948;11.574;2022-11-15T13:26:43;7.70;;;7.10;;
8102;SDS011;4094;49.948;11.574;2022-11-15T13:29:15;7.50;;;6.90;;
8102;SDS011;4094;49.948;11.574;2022-11-15T13:31:45;7.90;;;7.20;;
8102;SDS011;4094;49.948;11.574;2022-11-15T13:34:28;10.50;;;8.27;;
8102;SDS011;4094;49.948;11.574;2022-11-15T13:37:28;8.17;;;7.47;;
8102;SDS011;4094;49.948;11.574;2022-11-15T13:42:50;8.93;;;8.03;;
8102;SDS011;4094;49.948;11.574;2022-11-15T13:45:19;8.67;;;7.87;;
8102;SDS011;4094;49.948;11.574;2022-11-15T13:47:53;9.17;;;8.33;;
8102;SDS011;4094;49.948;11.574;2022-11-15T13:50:26;8.33;;;7.63;;
8102;SDS011;4094;49.948;11.574;2022-11-15T13:53:00;8.20;;;7.40;;
8102;SDS011;4094;49.948;11.574;2022-11-15T13:55:33;10.57;;;8.07;;
8102;SDS011;4094;49.948;11.574;2022-11-15T13:58:02;8.33;;;7.50;;
8102;SDS011;4094;49.948;11.574;2022-11-15T14:00:35;8.80;;;8.00;;
8102;SDS011;4094;49.948;11.574;2022-11-15T14:03:11;8.43;;;7.73;;
8102;SDS011;4094;49.948;11.574;2022-11-15T14:05:47;7.33;;;6.80;;
8102;SDS011;4094;49.948;11.574;2022-11-15T14:08:34;8.80;;;8.10;;
8102;SDS011;4094;49.948;11.574;2022-11-15T14:11:08;7.33;;;6.73;;
8102;SDS011;4094;49.948;11.574;2022-11-15T14:13:42;8.07;;;7.47;;
8102;SDS011;4094;49.948;11.574;2022-11-15T14:16:32;7.37;;;6.80;;
8102;SDS011;4094;49.948;11.574;2022-11-15T14:19:03;8.50;;;7.70;;
8102;SDS011;4094;49.948;11.574;2022-11-15T14:21:34;8.37;;;7.67;;
8102;SDS011;4094;49.948;11.574;2022-11-15T14:24:13;8.87;;;8.13;;
8102;SDS011;4094;49.948;11.574;2022-11-15T14:26:44;9.43;;;8.57;;
8102;SDS011;4094;49.948;11.574;2022-11-15T14:29:23;8.43;;;7.73;;
8102;SDS011;4094;49.948;11.574;2022-11-15T14:31:53;7.90;;;7.20;;
8102;SDS011;4094;49.948;11.574;2022-11-15T14:34:35;8.60;;;7.90;;
8102;SDS011;4094;49.948;11.574;2022-11-15T14:37:07;10.57;;;8.57;;
8102;SDS011;4094;49.948;11.574;2022-11-15T14:39:45;8.20;;;7.40;;
8102;SDS011;4094;49.948;11.574;2022-11-15T14:42:14;8.13;;;7.43;;
8102;SDS011;4094;49.948;11.574;2022-11-15T14:44:43;9.77;;;7.77;;
8102;SDS011;4094;49.948;11.574;2022-11-15T14:47:13;7.97;;;7.20;;
8102;SDS011;4094;49.948;11.574;2022-11-15T14:49:42;8.17;;;7.47;;
8102;SDS011;4094;49.948;11.574;2022-11-15T14:52:19;8.07;;;7.23;;
8102;SDS011;4094;49.948;11.574;2022-11-15T14:55:00;8.07;;;7.27;;
8102;SDS011;4094;49.948;11.574;2022-11-15T14:57:30;7.87;;;7.17;;
8102;SDS011;4094;49.948;11.574;2022-11-15T14:59:59;8.23;;;7.43;;
8102;SDS011;4094;49.948;11.574;2022-11-15T15:02:39;7.60;;;6.90;;
8102;SDS011;4094;49.948;11.574;2022-11-15T15:05:12;8.60;;;7.80;;
8102;SDS011;4094;49.948;11.574;2022-11-15T15:07:45;9.50;;;7.83;;
8102;SDS011;4094;49.948;11.574;2022-11-15T15:10:15;10.60;;;7.90;;
8102;SDS011;4094;49.948;11.574;2022-11-15T15:13:05;10.50;;;8.13;;
8102;SDS011;4094;49.948;11.574;2022-11-15T15:15:38;10.10;;;8.00;;
8102;SDS011;4094;49.948;11.574;2022-11-15T15:18:07;12.43;;;8.07;;
8102;SDS011;4094;49.948;11.574;2022-11-15T15:20:39;9.47;;;7.73;;
8102;SDS011;4094;49.948;11.574;2022-11-15T15:23:12;11.30;;;8.23;;
8102;SDS011;4094;49.948;11.574;2022-11-15T15:25:44;8.90;;;7.77;;
8102;SDS011;4094;49.948;11.574;2022-11-15T15:28:16;9.37;;;8.50;;
8102;SDS011;4094;49.948;11.574;2022-11-15T15:30:45;9.90;;;9.00;;
8102;SDS011;4094;49.948;11.574;2022-11-15T15:33:14;9.27;;;8.43;;
8102;SDS011;4094;49.948;11.574;2022-11-15T15:35:43;9.93;;;9.00;;
8102;SDS011;4094;49.948;11.574;2022-11-15T15:38:13;9.90;;;8.97;;
8102;SDS011;4094;49.948;11.574;2022-11-15T15:40:43;12.97;;;9.87;;
8102;SDS011;4094;49.948;11.574;2022-11-15T15:43:12;10.33;;;9.33;;
8102;SDS011;4094;49.948;11.574;2022-11-15T15:45:41;10.40;;;9.50;;
8102;SDS011;4094;49.948;11.574;2022-11-15T15:48:12;10.83;;;9.47;;
8102;SDS011;4094;49.948;11.574;2022-11-15T15:50:42;10.33;;;9.07;;
8102;SDS011;4094;49.948;11.574;2022-11-15T15:53:15;10.47;;;9.57;;
8102;SDS011;4094;49.948;11.574;2022-11-15T15:55:48;10.57;;;9.43;;
8102;SDS011;4094;49.948;11.574;2022-11-15T15:58:17;10.33;;;9.43;;
8102;SDS011;4094;49.948;11.574;2022-11-15T16:00:47;11.90;;;10.37;;
8102;SDS011;4094;49.948;11.574;2022-11-15T16:03:16;12.30;;;10.03;;
8102;SDS011;4094;49.948;11.574;2022-11-15T16:05:45;11.20;;;10.20;;
8102;SDS011;4094;49.948;11.574;2022-11-15T16:08:18;13.40;;;10.13;;
8102;SDS011;4094;49.948;11.574;2022-11-15T16:10:49;11.27;;;9.47;;
8102;SDS011;4094;49.948;11.574;2022-11-15T16:13:19;10.90;;;9.63;;
8102;SDS011;4094;49.948;11.574;2022-11-15T16:15:48;10.80;;;9.77;;
8102;SDS011;4094;49.948;11.574;2022-11-15T16:18:20;12.17;;;10.27;;
8102;SDS011;4094;49.948;11.574;2022-11-15T16:20:50;13.43;;;10.47;;
8102;SDS011;4094;49.948;11.574;2022-11-15T16:23:25;11.50;;;10.33;;
8102;SDS011;4094;49.948;11.574;2022-11-15T16:25:54;11.93;;;10.93;;
8102;SDS011;4094;49.948;11.574;2022-11-15T16:28:27;16.70;;;10.70;;
8102;SDS011;4094;49.948;11.574;2022-11-15T16:30:59;11.60;;;10.43;;
8102;SDS011;4094;49.948;11.574;2022-11-15T16:33:30;12.80;;;10.93;;
8102;SDS011;4094;49.948;11.574;2022-11-15T16:36:00;12.23;;;11.13;;
8102;SDS011;4094;49.948;11.574;2022-11-15T16:38:30;14.73;;;12.53;;
8102;SDS011;4094;49.948;11.574;2022-11-15T16:41:00;14.80;;;12.17;;
8102;SDS011;4094;49.948;11.574;2022-11-15T16:43:29;12.80;;;11.47;;
8102;SDS011;4094;49.948;11.574;2022-11-15T16:45:59;13.13;;;11.73;;
8102;SDS011;4094;49.948;11.574;2022-11-15T16:48:40;13.80;;;12.13;;
8102;SDS011;4094;49.948;11.574;2022-11-15T16:51:08;13.97;;;12.67;;
8102;SDS011;4094;49.948;11.574;2022-11-15T16:53:39;14.50;;;13.07;;
8102;SDS011;4094;49.948;11.574;2022-11-15T16:56:14;13.40;;;12.20;;
8102;SDS011;4094;49.948;11.574;2022-11-15T16:58:48;13.30;;;11.97;;
8102;SDS011;4094;49.948;11.574;2022-11-15T17:01:17;12.63;;;11.40;;
8102;SDS011;4094;49.948;11.574;2022-11-15T17:03:49;13.07;;;11.87;;